Time;durP1;ratioP1;P1;durP2;ratioP2;P2;SDS_P1;SDS_P2;PMS_P1;PMS_P2;Temp;Humidity;BMP_temperature;BMP_pressure;BME280_temperature;BME280_humidity;BME280_pressure;Samples;Min_cycle;Max_cycle;Signal;HPM_P1;HPM_P2
2021/12/06 00:00:22;;;;;;;;;;;;;;;26.61;69.54;101151.81;5080991;27;65810;-33
2021/12/06 00:02:54;;;;;;;;;;;;;;;26.66;69.41;101157.50;5080960;27;70197;-33
2021/12/06 00:05:26;;;;;;;;;;;;;;;26.72;69.50;101166.69;5079283;27;65599;-34
2021/12/06 00:07:56;;;;;;;;;;;;;;;26.74;69.95;101164.63;5083110;27;69885;-33
2021/12/06 00:10:26;;;;;;;;;;;;;;;26.78;69.45;101155.16;5082573;27;65905;-34
2021/12/06 00:12:56;;;;;;;;;;;;;;;26.52;68.37;101158.28;5083402;27;70104;-34
2021/12/06 00:15:31;;;;;;;;;;;;;;;26.56;68.87;101167.69;5081413;27;66654;-32
2021/12/06 00:18:01;;;;;;;;;;;;;;;26.62;69.07;101176.88;5079923;27;69800;-32
2021/12/06 00:20:31;;;;;;;;;;;;;;;26.63;69.47;101168.59;5082988;27;67491;-32
2021/12/06 00:23:01;;;;;;;;;;;;;;;26.66;69.49;101179.03;5076867;28;68866;-32
2021/12/06 00:25:31;;;;;;;;;;;;;;;26.69;69.98;101173.28;5081128;27;66124;-32
2021/12/06 00:28:01;;;;;;;;;;;;;;;26.71;69.71;101181.13;5079018;27;70215;-33
2021/12/06 00:30:31;;;;;;;;;;;;;;;26.74;69.11;101176.25;5096024;27;66013;-32
2021/12/06 00:33:02;;;;;;;;;;;;;;;26.77;68.92;101179.56;5079531;27;70059;-33
2021/12/06 00:35:32;;;;;;;;;;;;;;;26.81;68.84;101197.03;5080635;27;65702;-32
2021/12/06 00:38:02;;;;;;;;;;;;;;;26.83;68.54;101192.28;5080818;27;69414;-32
2021/12/06 00:40:33;;;;;;;;;;;;;;;26.85;68.46;101193.75;5080796;27;65727;-32
2021/12/06 00:43:04;;;;;;;;;;;;;;;26.88;68.46;101200.63;5078521;27;69407;-32
2021/12/06 00:45:34;;;;;;;;;;;;;;;26.89;68.25;101203.16;5077020;27;66694;-33
2021/12/06 00:48:05;;;;;;;;;;;;;;;26.92;68.25;101212.72;5077642;27;69821;-33
2021/12/06 00:50:38;;;;;;;;;;;;;;;26.94;68.23;101207.97;5075056;27;66585;-33
2021/12/06 00:53:08;;;;;;;;;;;;;;;26.95;68.10;101209.66;5074989;27;70061;-32
2021/12/06 00:55:38;;;;;;;;;;;;;;;26.91;67.92;101208.34;5079509;27;66653;-32
2021/12/06 00:58:09;;;;;;;;;;;;;;;26.98;67.87;101209.28;5075010;27;69337;-32
2021/12/06 01:00:59;;;;;;;;;;;;;;;26.93;67.85;101211.69;5079052;27;66431;-32
2021/12/06 01:03:36;;;;;;;;;;;;;;;26.99;67.78;101224.41;5077549;27;70662;-33
2021/12/06 01:06:10;;;;;;;;;;;;;;;27.02;67.89;101229.41;5077748;27;66545;-32
2021/12/06 01:08:44;;;;;;;;;;;;;;;27.04;67.52;101224.69;5076152;27;69478;-33
2021/12/06 01:11:26;;;;;;;;;;;;;;;27.05;67.70;101226.38;5076664;27;66705;-33
2021/12/06 01:13:56;;;;;;;;;;;;;;;27.06;67.60;101233.41;5077415;27;70680;-34
2021/12/06 01:16:27;;;;;;;;;;;;;;;27.07;67.68;101229.69;5075841;27;66585;-32
2021/12/06 01:18:57;;;;;;;;;;;;;;;27.08;67.57;101226.00;5078392;27;69831;-32
2021/12/06 01:24:27;;;;;;;;;;;;;;;27.10;67.28;101223.94;5075211;27;70581;-32
2021/12/06 01:30:03;;;;;;;;;;;;;;;27.13;67.61;101220.03;5066016;27;70679;-33
2021/12/06 01:33:15;;;;;;;;;;;;;;;27.14;67.30;101214.47;5060391;27;66438;-33
2021/12/06 01:41:31;;;;;;;;;;;;;;;27.18;67.48;101229.25;5076032;27;70160;-32
2021/12/06 01:44:15;;;;;;;;;;;;;;;27.17;68.35;101227.59;5077726;27;66775;-32
2021/12/06 01:46:54;;;;;;;;;;;;;;;27.18;67.80;101220.34;5075277;28;70283;-32
2021/12/06 01:49:25;;;;;;;;;;;;;;;27.12;67.58;101203.03;5043844;28;66297;-33
2021/12/06 01:52:04;;;;;;;;;;;;;;;27.22;68.08;101215.41;5075868;27;70003;-32
2021/12/06 01:54:40;;;;;;;;;;;;;;;27.22;68.59;101212.72;5075674;27;66477;-32
2021/12/06 01:57:12;;;;;;;;;;;;;;;27.24;68.52;101216.06;5058200;27;69567;-33
2021/12/06 01:59:44;;;;;;;;;;;;;;;27.24;68.99;101214.19;5058859;28;66395;-32
2021/12/06 02:02:14;;;;;;;;;;;;;;;27.26;68.61;101214.84;5065777;27;70383;-32
2021/12/06 02:04:49;;;;;;;;;;;;;;;27.31;68.18;101214.31;5074036;27;67753;-32
2021/12/06 02:07:21;;;;;;;;;;;;;;;27.33;67.70;101209.53;5073915;27;69618;-33
2021/12/06 02:09:57;;;;;;;;;;;;;;;27.37;67.83;101208.16;5075601;27;66331;-33
2021/12/06 02:12:32;;;;;;;;;;;;;;;27.38;67.89;101199.03;5071264;27;70451;-33
2021/12/06 02:15:54;;;;;;;;;;;;;;;27.41;67.79;101193.25;5070744;27;66862;-34
2021/12/06 02:18:10;;;;;;;;;;;;;;;27.44;67.68;101206.34;5072885;27;70012;-34
2021/12/06 02:20:49;;;;;;;;;;;;;;;27.37;67.61;101186.59;5076177;27;66435;-33
2021/12/06 02:23:19;;;;;;;;;;;;;;;27.47;67.38;101203.31;5057084;27;69966;-33
2021/12/06 02:25:49;;;;;;;;;;;;;;;27.46;67.53;101190.84;5074805;27;66111;-33
2021/12/06 02:28:20;;;;;;;;;;;;;;;27.51;67.53;101201.88;5072876;27;70239;-34
2021/12/06 02:30:50;;;;;;;;;;;;;;;27.53;67.57;101207.94;5077717;27;66583;-35
2021/12/06 02:33:22;;;;;;;;;;;;;;;27.56;67.75;101199.47;5071909;27;69028;-34
2021/12/06 02:35:52;;;;;;;;;;;;;;;27.57;67.71;101203.81;5075604;28;65995;-34
2021/12/06 02:38:24;;;;;;;;;;;;;;;27.60;67.81;101197.22;5074986;27;69951;-34
2021/12/06 02:40:54;;;;;;;;;;;;;;;27.58;67.56;101183.94;5077859;27;65936;-33
2021/12/06 02:43:25;;;;;;;;;;;;;;;27.65;67.29;101197.47;5074610;27;70371;-34
2021/12/06 02:45:56;;;;;;;;;;;;;;;27.68;67.51;101198.97;5075463;27;66637;-34
2021/12/06 02:48:26;;;;;;;;;;;;;;;27.70;67.18;101188.84;5070647;27;70256;-34
2021/12/06 02:50:59;;;;;;;;;;;;;;;27.72;67.15;101192.16;5075164;27;66391;-34
2021/12/06 02:53:32;;;;;;;;;;;;;;;27.75;67.07;101194.47;5076225;27;70580;-34
2021/12/06 02:56:06;;;;;;;;;;;;;;;27.77;67.13;101195.13;5073852;27;67006;-34
2021/12/06 03:01:13;;;;;;;;;;;;;;;27.81;66.69;101193.75;5073954;27;65476;-33
2021/12/06 03:03:44;;;;;;;;;;;;;;;27.83;66.53;101191.69;5068494;27;70194;-33
2021/12/06 03:06:15;;;;;;;;;;;;;;;27.86;66.65;101185.94;5074968;27;65871;-33
2021/12/06 03:08:46;;;;;;;;;;;;;;;27.86;66.73;101185.94;5075973;27;70164;-34
2021/12/06 03:11:22;;;;;;;;;;;;;;;27.89;66.69;101190.06;5078393;27;66137;-33
2021/12/06 03:13:52;;;;;;;;;;;;;;;27.91;66.45;101188.84;5079904;27;70629;-33
2021/12/06 03:16:23;;;;;;;;;;;;;;;27.93;66.21;101186.81;5077582;27;65523;-33
2021/12/06 03:18:56;;;;;;;;;;;;;;;27.95;66.32;101190.16;5080261;27;69619;-34
2021/12/06 03:21:26;;;;;;;;;;;;;;;27.95;66.29;101182.06;5080349;27;66366;-34
2021/12/06 03:23:57;;;;;;;;;;;;;;;27.98;66.05;101189.75;5077981;27;69382;-33
2021/12/06 03:26:28;;;;;;;;;;;;;;;28.00;66.25;101182.31;5080743;27;66487;-32
2021/12/06 03:28:58;;;;;;;;;;;;;;;28.01;65.98;101173.19;5080100;27;70022;-33
2021/12/06 03:31:29;;;;;;;;;;;;;;;28.05;65.95;101163.69;5076957;27;65782;-32
2021/12/06 03:34:03;;;;;;;;;;;;;;;28.06;65.89;101168.06;5078934;27;70040;-33
2021/12/06 03:36:34;;;;;;;;;;;;;;;28.09;65.75;101168.69;5068741;27;65592;-33
2021/12/06 03:39:07;;;;;;;;;;;;;;;28.10;65.63;101159.56;5079677;27;70603;-33
2021/12/06 03:41:38;;;;;;;;;;;;;;;28.13;65.58;101164.56;5069853;27;66233;-33
2021/12/06 03:44:09;;;;;;;;;;;;;;;28.15;65.72;101157.13;5081908;27;70616;-34
2021/12/06 03:46:40;;;;;;;;;;;;;;;28.17;65.68;101149.69;5080962;27;66565;-34
2021/12/06 03:49:11;;;;;;;;;;;;;;;28.18;65.57;101152.16;5081219;27;70686;-32
2021/12/06 03:51:42;;;;;;;;;;;;;;;28.20;65.62;101150.13;5076834;27;65739;-33
2021/12/06 03:54:13;;;;;;;;;;;;;;;28.24;65.39;101153.25;5078478;27;69647;-33
2021/12/06 03:56:44;;;;;;;;;;;;;;;28.26;65.33;101143.09;5079260;27;66483;-33
2021/12/06 03:59:15;;;;;;;;;;;;;;;28.28;65.24;101146.44;5076988;27;69836;-33
2021/12/06 04:01:47;;;;;;;;;;;;;;;28.32;64.95;101136.91;5079581;27;66706;-34
2021/12/06 04:04:21;;;;;;;;;;;;;;;28.34;65.15;101132.16;5079421;27;69107;-33
2021/12/06 04:06:53;;;;;;;;;;;;;;;28.37;64.83;101129.06;5077978;27;66026;-34
2021/12/06 04:09:26;;;;;;;;;;;;;;;28.39;64.74;101123.47;5078794;27;69342;-33
2021/12/06 04:11:57;;;;;;;;;;;;;;;28.41;64.91;101119.53;5078839;27;66752;-34
2021/12/06 04:14:27;;;;;;;;;;;;;;;28.45;64.58;101114.63;5078555;27;69939;-34
2021/12/06 04:16:58;;;;;;;;;;;;;;;28.47;64.72;101113.41;5080250;27;66872;-32
2021/12/06 04:19:32;;;;;;;;;;;;;;;28.50;64.46;101107.59;5077305;27;70442;-33
2021/12/06 04:22:03;;;;;;;;;;;;;;;28.52;64.27;101102.81;5078899;27;65365;-36
2021/12/06 04:24:35;;;;;;;;;;;;;;;28.56;64.24;101102.44;5077437;27;70094;-34
2021/12/06 04:27:14;;;;;;;;;;;;;;;28.59;64.12;101089.38;5077007;27;66321;-34
2021/12/06 04:29:57;;;;;;;;;;;;;;;28.61;64.13;101081.94;5078451;27;70150;-33
2021/12/06 04:32:32;;;;;;;;;;;;;;;28.64;64.00;101080.66;5060783;28;66788;-34
2021/12/06 04:35:03;;;;;;;;;;;;;;;28.67;63.93;101080.28;5079242;27;69127;-34
2021/12/06 04:37:33;;;;;;;;;;;;;;;28.69;64.08;101078.19;5078529;27;66219;-33
2021/12/06 04:40:04;;;;;;;;;;;;;;;28.72;63.86;101069.69;5077700;27;70135;-33
2021/12/06 04:42:35;;;;;;;;;;;;;;;28.76;64.07;101067.44;5061209;28;66277;-34
2021/12/06 04:45:05;;;;;;;;;;;;;;;28.79;63.72;101067.03;5078790;27;69503;-33
2021/12/06 04:47:37;;;;;;;;;;;;;;;28.81;64.08;101060.41;5065584;28;67211;-33
2021/12/06 04:50:08;;;;;;;;;;;;;;;28.85;63.95;101056.25;5080423;27;69481;-34
2021/12/06 04:52:39;;;;;;;;;;;;;;;28.87;63.88;101054.19;5079215;27;66550;-33
2021/12/06 04:55:15;;;;;;;;;;;;;;;28.91;63.53;101047.34;5079165;27;70108;-34
2021/12/06 04:57:46;;;;;;;;;;;;;;;28.93;63.64;101039.88;5078294;27;66108;-34
2021/12/06 05:00:27;;;;;;;;;;;;;;;28.95;63.79;101029.72;5075835;27;69927;-34
2021/12/06 05:02:58;;;;;;;;;;;;;;;28.99;63.46;101023.91;5078519;27;65153;-33
2021/12/06 05:05:34;;;;;;;;;;;;;;;29.01;63.46;101029.94;5079759;27;69074;-33
2021/12/06 05:08:37;;;;;;;;;;;;;;;29.03;63.50;101026.03;5058265;27;66429;-33
2021/12/06 05:11:07;;;;;;;;;;;;;;;29.04;63.53;101016.06;5077348;27;70541;-33
2021/12/06 05:13:40;;;;;;;;;;;;;;;29.07;63.24;101015.63;5063322;27;66607;-33
2021/12/06 05:16:10;;;;;;;;;;;;;;;29.09;63.33;101003.59;5076591;27;69020;-33
2021/12/06 05:18:41;;;;;;;;;;;;;;;29.11;63.38;101001.53;5078451;27;66110;-34
2021/12/06 05:21:12;;;;;;;;;;;;;;;29.12;63.25;100999.66;5060418;28;69067;-33
2021/12/06 05:23:42;;;;;;;;;;;;;;;29.16;62.84;100996.31;5076298;27;65984;-33
2021/12/06 05:26:12;;;;;;;;;;;;;;;29.18;63.16;101002.34;5077854;27;70306;-33
2021/12/06 05:28:44;;;;;;;;;;;;;;;29.22;63.21;100997.38;5078006;27;65775;-33
2021/12/06 05:31:19;;;;;;;;;;;;;;;29.24;63.13;100989.88;5076120;27;69682;-33
2021/12/06 05:33:54;;;;;;;;;;;;;;;29.27;63.03;100996.75;5078455;27;65838;-34
2021/12/06 05:36:24;;;;;;;;;;;;;;;29.29;62.76;100998.22;5078251;27;70141;-34
2021/12/06 05:38:54;;;;;;;;;;;;;;;29.29;62.26;100990.09;5078419;27;66813;-33
2021/12/06 05:41:25;;;;;;;;;;;;;;;29.32;62.29;100987.00;5079215;27;68906;-33
2021/12/06 05:43:55;;;;;;;;;;;;;;;29.23;62.78;100963.09;5079019;27;66398;-33
2021/12/06 05:46:25;;;;;;;;;;;;;;;29.36;62.70;100973.88;5078189;27;70234;-32
2021/12/06 05:48:58;;;;;;;;;;;;;;;29.38;62.10;100964.53;5079491;27;66938;-35
2021/12/06 05:51:28;;;;;;;;;;;;;;;29.43;62.64;100960.38;5076171;27;69198;-34
2021/12/06 05:53:58;;;;;;;;;;;;;;;29.45;62.58;100955.59;5079074;27;65397;-32
2021/12/06 05:56:28;;;;;;;;;;;;;;;29.47;61.91;100946.22;5077981;27;70214;-32
2021/12/06 05:58:58;;;;;;;;;;;;;;;29.37;61.87;100918.81;5077510;27;65562;-32
2021/12/06 06:01:30;;;;;;;;;;;;;;;29.53;61.91;100936.44;5078217;27;69998;-33
2021/12/06 06:04:01;;;;;;;;;;;;;;;29.55;61.81;100937.09;5078936;27;66646;-33
2021/12/06 06:06:33;;;;;;;;;;;;;;;29.55;61.73;100937.91;5076412;27;71184;-33
2021/12/06 06:09:05;;;;;;;;;;;;;;;29.59;61.71;100932.94;5078912;27;66907;-33
2021/12/06 06:11:35;;;;;;;;;;;;;;;29.60;61.73;100923.78;5078116;27;69333;-32
2021/12/06 06:14:06;;;;;;;;;;;;;;;29.61;61.46;100909.19;5076591;28;66493;-32
2021/12/06 06:16:47;;;;;;;;;;;;;;;29.62;62.04;100910.88;5078393;27;70092;-32
2021/12/06 06:19:19;;;;;;;;;;;;;;;29.65;61.51;100905.09;5077416;27;66000;-32
2021/12/06 06:21:51;;;;;;;;;;;;;;;29.68;61.50;100898.44;5077458;27;70015;-34
2021/12/06 06:24:23;;;;;;;;;;;;;;;29.69;61.42;100903.59;5078171;27;65415;-33
2021/12/06 06:26:53;;;;;;;;;;;;;;;29.72;61.74;100895.06;5076351;27;69681;-33
2021/12/06 06:29:23;;;;;;;;;;;;;;;29.75;61.18;100905.44;5077781;27;66428;-32
2021/12/06 06:31:54;;;;;;;;;;;;;;;29.79;61.79;100895.06;5078531;27;70368;-33
2021/12/06 06:34:24;;;;;;;;;;;;;;;29.81;61.21;100896.53;5076029;28;66617;-33
2021/12/06 06:36:55;;;;;;;;;;;;;;;29.86;61.37;100884.22;5078388;27;70072;-33
2021/12/06 06:39:25;;;;;;;;;;;;;;;29.89;60.99;100889.19;5077950;27;65504;-33
2021/12/06 06:41:55;;;;;;;;;;;;;;;29.92;60.83;100888.78;5076138;27;69888;-33
2021/12/06 06:44:25;;;;;;;;;;;;;;;29.94;60.87;100875.88;5077392;27;66940;-32
2021/12/06 06:46:56;;;;;;;;;;;;;;;29.95;60.93;100877.53;5078155;27;70571;-32
2021/12/06 06:49:30;;;;;;;;;;;;;;;29.97;60.66;100870.03;5061937;27;66395;-32
2021/12/06 06:52:01;;;;;;;;;;;;;;;30.00;60.58;100870.41;5077734;27;69414;-33
2021/12/06 06:54:31;;;;;;;;;;;;;;;30.01;61.10;100866.69;5063659;27;65000;-33
2021/12/06 06:57:01;;;;;;;;;;;;;;;30.05;60.69;100867.09;5077666;27;69665;-32
2021/12/06 06:59:31;;;;;;;;;;;;;;;30.06;60.65;100863.31;5076943;27;65416;-33
2021/12/06 07:02:01;;;;;;;;;;;;;;;30.09;60.53;100862.06;5076768;27;70413;-32
2021/12/06 07:04:32;;;;;;;;;;;;;;;30.11;60.75;100865.38;5074852;27;66769;-33
2021/12/06 07:07:02;;;;;;;;;;;;;;;30.10;60.71;100869.97;5077936;27;69962;-33
2021/12/06 07:09:32;;;;;;;;;;;;;;;30.13;60.35;100858.72;5076432;27;66844;-33
2021/12/06 07:12:02;;;;;;;;;;;;;;;30.15;60.52;100862.06;5079586;27;70856;-33
2021/12/06 07:14:33;;;;;;;;;;;;;;;30.15;61.07;100856.63;5077252;27;66314;-33
2021/12/06 07:17:03;;;;;;;;;;;;;;;30.18;60.35;100856.22;5063407;27;70360;-33
2021/12/06 07:19:33;;;;;;;;;;;;;;;30.19;61.12;100846.22;5076917;27;66477;-32
2021/12/06 07:22:03;;;;;;;;;;;;;;;30.22;60.85;100846.63;5077337;27;69238;-32
2021/12/06 07:24:33;;;;;;;;;;;;;;;30.26;61.01;100842.44;5074621;27;66216;-33
2021/12/06 07:27:03;;;;;;;;;;;;;;;30.30;60.54;100842.03;5077468;27;70150;-32
2021/12/06 07:29:35;;;;;;;;;;;;;;;30.31;60.49;100832.84;5076827;27;66478;-33
2021/12/06 07:32:05;;;;;;;;;;;;;;;30.35;60.40;100839.50;5075686;27;69677;-34
2021/12/06 07:34:36;;;;;;;;;;;;;;;30.37;60.29;100840.09;5076818;27;65647;-34
2021/12/06 07:37:06;;;;;;;;;;;;;;;30.38;60.20;100834.47;5078044;27;68830;-33
2021/12/06 07:39:36;;;;;;;;;;;;;;;30.41;60.62;100833.19;5073732;28;66011;-33
2021/12/06 07:42:06;;;;;;;;;;;;;;;30.40;60.75;100826.97;5077514;27;71048;-34
2021/12/06 07:44:36;;;;;;;;;;;;;;;30.43;60.42;100831.13;5077414;27;66208;-33
2021/12/06 07:47:09;;;;;;;;;;;;;;;30.41;60.83;100827.78;5076347;27;69990;-33
2021/12/06 07:49:43;;;;;;;;;;;;;;;30.43;60.88;100821.13;5077497;27;66254;-32
2021/12/06 07:52:27;;;;;;;;;;;;;;;30.46;60.69;100826.09;5075136;27;70140;-33
2021/12/06 07:54:59;;;;;;;;;;;;;;;30.44;60.86;100825.47;5077564;27;65695;-33
2021/12/06 07:57:30;;;;;;;;;;;;;;;30.48;60.56;100828.59;5078819;27;70406;-34
2021/12/06 08:00:00;;;;;;;;;;;;;;;30.49;60.75;100835.66;5079128;27;65647;-33
2021/12/06 08:02:33;;;;;;;;;;;;;;;30.49;60.41;100824.81;5079501;27;69208;-33
2021/12/06 08:07:53;;;;;;;;;;;;;;;30.58;60.16;100828.91;5080221;27;69968;-33
2021/12/06 08:10:23;;;;;;;;;;;;;;;30.62;60.16;100830.16;5080329;27;66499;-33
2021/12/06 08:12:53;;;;;;;;;;;;;;;30.64;60.76;100838.84;5078434;27;70390;-33
2021/12/06 08:15:23;;;;;;;;;;;;;;;30.65;59.73;100840.53;5080070;27;66350;-33
2021/12/06 08:17:53;;;;;;;;;;;;;;;30.65;60.64;100832.41;5080716;27;70161;-34
2021/12/06 08:20:23;;;;;;;;;;;;;;;30.65;60.13;100835.13;5077931;27;65467;-33
2021/12/06 08:22:53;;;;;;;;;;;;;;;30.70;59.84;100843.41;5072546;27;68919;-33
2021/12/06 08:25:24;;;;;;;;;;;;;;;30.68;60.29;100840.09;5079581;27;65557;-33
2021/12/06 08:27:54;;;;;;;;;;;;;;;30.67;59.92;100837.59;5078981;27;69837;-33
2021/12/06 08:30:26;;;;;;;;;;;;;;;30.70;59.69;100840.72;5081853;27;65946;-33
2021/12/06 08:32:58;;;;;;;;;;;;;;;30.73;60.16;100842.16;5089367;27;70435;-33
2021/12/06 08:35:36;;;;;;;;;;;;;;;30.75;59.71;100845.44;5079279;27;66963;-33
2021/12/06 08:38:08;;;;;;;;;;;;;;;30.78;60.28;100841.47;5080388;27;69514;-33
2021/12/06 08:40:39;;;;;;;;;;;;;;;30.80;59.44;100848.34;5077377;27;66856;-33
2021/12/06 08:43:16;;;;;;;;;;;;;;;30.85;59.66;100845.81;5079397;27;70231;-33
2021/12/06 08:45:50;;;;;;;;;;;;;;;30.85;59.72;100850.41;5079418;27;65114;-33
2021/12/06 08:48:23;;;;;;;;;;;;;;;30.86;59.84;100854.75;5080559;27;70044;-34
2021/12/06 08:50:54;;;;;;;;;;;;;;;30.91;59.22;100854.94;5078903;27;65462;-33
2021/12/06 08:53:25;;;;;;;;;;;;;;;30.91;59.41;100857.66;5078116;27;70097;-33
2021/12/06 08:55:56;;;;;;;;;;;;;;;30.89;59.17;100851.63;5080262;27;66276;-34
2021/12/06 08:58:33;;;;;;;;;;;;;;;30.92;59.48;100856.59;5079351;27;70348;-33
2021/12/06 09:01:12;;;;;;;;;;;;;;;30.93;59.55;100858.25;5080348;27;66986;-33
2021/12/06 09:04:04;;;;;;;;;;;;;;;30.90;59.26;100861.41;5078559;27;69338;-33
2021/12/06 09:06:34;;;;;;;;;;;;;;;30.93;59.05;100863.69;5079433;27;66499;-33
2021/12/06 09:09:07;;;;;;;;;;;;;;;30.95;59.16;100861.56;5078402;27;69373;-32
2021/12/06 09:11:39;;;;;;;;;;;;;;;30.97;58.84;100864.88;5075848;27;66506;-32
2021/12/06 09:14:09;;;;;;;;;;;;;;;31.00;58.26;100856.31;5080009;28;70585;-34
2021/12/06 09:16:40;;;;;;;;;;;;;;;31.01;58.74;100860.69;5079391;27;66409;-32
2021/12/06 09:19:11;;;;;;;;;;;;;;;31.02;59.00;100867.75;5078690;27;69622;-33
2021/12/06 09:21:43;;;;;;;;;;;;;;;31.00;58.98;100869.84;5076474;27;66209;-32
2021/12/06 09:24:17;;;;;;;;;;;;;;;31.02;59.04;100862.34;5078475;27;69455;-32
2021/12/06 09:26:47;;;;;;;;;;;;;;;31.02;58.86;100864.22;5076229;27;65293;-32
2021/12/06 09:29:18;;;;;;;;;;;;;;;31.02;58.66;100867.75;5078640;27;70078;-32
2021/12/06 09:31:47;;;;;;;;;;;;;;;31.02;58.66;100867.75;5077658;27;65716;-32
2021/12/06 09:34:21;;;;;;;;;;;;;;;31.02;58.36;100867.75;5076429;27;70579;-32
2021/12/06 09:36:51;;;;;;;;;;;;;;;31.03;58.99;100874.00;5077107;27;65610;-33
2021/12/06 09:39:22;;;;;;;;;;;;;;;31.05;58.85;100872.72;5077326;27;70171;-32
2021/12/06 09:41:52;;;;;;;;;;;;;;;31.07;57.96;100888.78;5078160;27;66685;-32
2021/12/06 09:44:22;;;;;;;;;;;;;;;31.02;58.53;100886.72;5077544;27;69640;-33
2021/12/06 09:46:52;;;;;;;;;;;;;;;31.06;58.58;100887.94;5074480;27;66882;-33
2021/12/06 09:49:23;;;;;;;;;;;;;;;31.07;58.33;100892.31;5074893;27;70150;-32
2021/12/06 09:51:57;;;;;;;;;;;;;;;31.08;58.21;100903.97;5075533;27;65784;-33
2021/12/06 09:54:31;;;;;;;;;;;;;;;31.05;58.60;100897.13;5071183;27;70125;-33
2021/12/06 09:57:06;;;;;;;;;;;;;;;31.07;58.17;100899.63;5075569;27;66021;-33
2021/12/06 09:59:37;;;;;;;;;;;;;;;31.07;57.97;100905.03;5070740;27;69034;-33
2021/12/06 10:02:09;;;;;;;;;;;;;;;31.07;58.59;100908.56;5074395;27;65299;-33
2021/12/06 10:04:48;;;;;;;;;;;;;;;31.07;58.81;100908.56;5076417;27;69700;-33
2021/12/06 10:07:18;;;;;;;;;;;;;;;31.07;58.72;100910.44;5075217;27;66315;-32
2021/12/06 10:09:51;;;;;;;;;;;;;;;31.04;58.58;100914.44;5062748;27;70455;-34
2021/12/06 10:12:22;;;;;;;;;;;;;;;31.04;58.29;100917.13;5077027;27;66737;-33
2021/12/06 10:14:54;;;;;;;;;;;;;;;31.00;58.80;100918.63;5075832;27;70237;-33
2021/12/06 10:17:25;;;;;;;;;;;;;;;31.04;58.11;100922.56;5076520;27;66261;-33
2021/12/06 10:19:55;;;;;;;;;;;;;;;31.03;58.40;100912.75;5077158;27;70667;-33
2021/12/06 10:22:28;;;;;;;;;;;;;;;31.01;58.80;100914.03;4954904;27;3472731;-34
2021/12/06 10:25:00;;;;;;;;;;;;;;;31.00;58.62;100915.91;5077422;27;69875;-34
2021/12/06 10:27:54;;;;;;;;;;;;;;;31.00;58.56;100923.22;5076965;27;66558;-34
2021/12/06 10:30:24;;;;;;;;;;;;;;;31.01;58.48;100923.00;5078423;27;69297;-34
2021/12/06 10:33:02;;;;;;;;;;;;;;;30.99;58.67;100925.09;5076895;27;65681;-33
2021/12/06 10:35:33;;;;;;;;;;;;;;;30.95;58.71;100926.56;5076957;27;70375;-32
2021/12/06 10:38:03;;;;;;;;;;;;;;;30.96;59.13;100928.25;5078948;27;66909;-33
2021/12/06 10:40:36;;;;;;;;;;;;;;;30.96;58.67;100928.25;5075758;27;70344;-33
2021/12/06 10:43:08;;;;;;;;;;;;;;;30.95;58.71;100931.97;5078915;27;65912;-34
2021/12/06 10:45:42;;;;;;;;;;;;;;;30.90;59.08;100934.56;5078333;27;70721;-33
2021/12/06 10:48:12;;;;;;;;;;;;;;;30.91;58.91;100945.16;5078840;27;66949;-33
2021/12/06 10:50:55;;;;;;;;;;;;;;;30.90;58.83;100937.25;5077323;27;70093;-34
2021/12/06 10:53:26;;;;;;;;;;;;;;;30.88;58.94;100942.88;5077354;27;65949;-34
2021/12/06 10:55:58;;;;;;;;;;;;;;;30.88;58.82;100947.47;5078150;27;69750;-33
2021/12/06 10:58:29;;;;;;;;;;;;;;;30.85;59.83;100948.75;5075605;27;66773;-33
2021/12/06 11:01:13;;;;;;;;;;;;;;;30.79;59.91;100948.75;5072520;27;70300;-35
2021/12/06 11:03:45;;;;;;;;;;;;;;;30.72;56.13;100952.31;5073338;27;66238;-34
2021/12/06 11:06:21;;;;;;;;;;;;;;;30.72;56.24;100952.31;5070967;27;69742;-34
2021/12/06 11:08:53;;;;;;;;;;;;;;;30.72;55.66;100957.72;5075888;27;65670;-34
2021/12/06 11:11:27;;;;;;;;;;;;;;;30.71;55.33;100958.78;5078763;27;69844;-34
2021/12/06 11:13:59;;;;;;;;;;;;;;;30.70;55.22;100961.69;5079360;27;66130;-34
2021/12/06 11:16:31;;;;;;;;;;;;;;;30.77;55.61;100961.69;5077566;27;70484;-35
2021/12/06 11:19:04;;;;;;;;;;;;;;;30.78;56.45;100968.75;5076707;27;64655;-33
2021/12/06 11:21:39;;;;;;;;;;;;;;;30.78;57.39;100968.75;5076196;27;69752;-34
2021/12/06 11:24:12;;;;;;;;;;;;;;;30.76;57.42;100966.28;5076342;27;65478;-33
2021/12/06 11:26:46;;;;;;;;;;;;;;;30.77;58.50;100969.81;5077251;27;69283;-34
2021/12/06 11:29:37;;;;;;;;;;;;;;;30.77;58.68;100977.94;5077065;27;66879;-34
2021/12/06 11:32:09;;;;;;;;;;;;;;;30.72;58.82;100984.81;5078690;27;69890;-34
2021/12/06 11:34:55;;;;;;;;;;;;;;;30.73;58.73;100981.06;5081726;27;67031;-36
2021/12/06 11:37:27;;;;;;;;;;;;;;;30.72;59.35;100981.28;5081785;27;69600;-33
2021/12/06 11:40:06;;;;;;;;;;;;;;;30.72;59.48;100992.94;5079494;27;65495;-35
2021/12/06 11:42:48;;;;;;;;;;;;;;;30.71;59.85;101004.81;5080831;27;69804;-33
2021/12/06 11:45:36;;;;;;;;;;;;;;;30.70;60.39;101011.28;5081260;27;66369;-34
2021/12/06 11:48:07;;;;;;;;;;;;;;;30.69;60.03;101020.44;5081278;27;70178;-32
2021/12/06 11:50:41;;;;;;;;;;;;;;;30.69;59.98;101023.16;5082883;27;65626;-34
2021/12/06 11:53:12;;;;;;;;;;;;;;;30.67;60.38;101030.69;5079741;28;70407;-33
2021/12/06 11:55:46;;;;;;;;;;;;;;;30.66;60.81;101039.84;5083079;27;66556;-35
2021/12/06 11:58:21;;;;;;;;;;;;;;;30.65;61.35;101038.19;5070978;27;70104;-34
2021/12/06 12:01:21;;;;;;;;;;;;;;;30.65;61.36;101045.47;5054425;27;65706;-35
2021/12/06 12:03:54;;;;;;;;;;;;;;;30.61;61.55;101044.22;5066328;27;70581;-32
2021/12/06 12:06:27;;;;;;;;;;;;;;;30.61;62.10;101058.59;5080472;27;66364;-34
2021/12/06 12:09:06;;;;;;;;;;;;;;;30.61;62.41;101055.88;5079694;27;70726;-31
2021/12/06 12:11:51;;;;;;;;;;;;;;;30.59;62.98;101060.72;5080565;27;66732;-33
2021/12/06 12:14:32;;;;;;;;;;;;;;;30.58;63.27;101071.75;5079149;27;69502;-33
2021/12/06 12:17:04;;;;;;;;;;;;;;;30.57;63.33;101072.78;5078219;27;65621;-33
2021/12/06 12:19:34;;;;;;;;;;;;;;;30.56;63.61;101080.06;5082142;27;70421;-34
2021/12/06 12:22:05;;;;;;;;;;;;;;;30.54;63.46;101081.34;5081055;27;66290;-33
2021/12/06 12:24:37;;;;;;;;;;;;;;;30.54;63.69;101087.59;5095859;27;70731;-34
2021/12/06 12:27:33;;;;;;;;;;;;;;;30.51;64.26;101085.31;5084494;27;66869;-33
2021/12/06 12:30:04;;;;;;;;;;;;;;;30.50;64.17;101091.75;5083021;27;70694;-35
2021/12/06 12:32:34;;;;;;;;;;;;;;;30.49;63.99;101095.50;5082084;27;66575;-34
2021/12/06 12:35:07;;;;;;;;;;;;;;;30.48;64.16;101091.16;5081164;27;69826;-33
2021/12/06 12:37:38;;;;;;;;;;;;;;;30.46;64.85;101096.75;5082918;27;65289;-33
2021/12/06 12:40:09;;;;;;;;;;;;;;;30.45;65.05;101099.66;5082234;27;70363;-33
2021/12/06 12:42:53;;;;;;;;;;;;;;;30.45;64.37;101096.97;5070306;27;66329;-34
2021/12/06 12:45:23;;;;;;;;;;;;;;;30.42;65.13;101095.53;5081344;27;69201;-32
2021/12/06 12:47:56;;;;;;;;;;;;;;;30.38;64.83;101098.88;5038052;28;67102;-31
2021/12/06 12:50:30;;;;;;;;;;;;;;;30.38;64.86;101098.88;5064986;28;70112;-34
2021/12/06 12:53:11;;;;;;;;;;;;;;;30.40;65.10;101102.22;5055663;28;65405;-35
2021/12/06 12:55:43;;;;;;;;;;;;;;;30.21;66.95;101099.28;5078724;27;70243;-33
2021/12/06 12:58:20;;;;;;;;;;;;;;;30.10;67.73;101108.03;5079109;28;65835;-33
2021/12/06 13:00:59;;;;;;;;;;;;;;;29.97;68.76;101102.63;5081250;27;70790;-33
2021/12/06 13:03:39;;;;;;;;;;;;;;;29.96;69.42;101106.38;5078537;27;65518;-34
2021/12/06 13:06:12;;;;;;;;;;;;;;;29.84;69.19;101098.91;5077450;27;70037;-35
2021/12/06 13:08:43;;;;;;;;;;;;;;;29.83;69.56;101109.91;5078346;27;65661;-33
2021/12/06 13:11:13;;;;;;;;;;;;;;;29.73;69.93;101094.13;5080351;27;69230;-34
2021/12/06 13:13:47;;;;;;;;;;;;;;;29.76;70.20;101118.03;5080793;27;66623;-34
2021/12/06 13:17:10;;;;;;;;;;;;;;;29.70;70.43;101112.59;5081012;27;69613;-33
2021/12/06 13:19:25;;;;;;;;;;;;;;;29.69;70.18;101111.78;5079670;27;66265;-33
2021/12/06 13:21:59;;;;;;;;;;;;;;;29.68;70.53;101118.25;5077953;27;69134;-33